createdAt,value
2023-04-21T00:01:16.579Z,46.30
2023-04-21T00:03:44.544Z,47.42
2023-04-21T00:06:11.048Z,47.10
2023-04-21T00:08:40.332Z,51.15
2023-04-21T00:11:07.489Z,49.28
2023-04-21T00:13:34.768Z,50.13
2023-04-21T00:16:02.007Z,51.38
2023-04-21T00:18:28.918Z,49.90
2023-04-21T00:20:55.675Z,48.53
2023-04-21T00:23:22.117Z,51.47
2023-04-21T00:25:48.804Z,53.92
2023-04-21T00:28:15.401Z,53.45
2023-04-21T00:30:42.034Z,53.13
2023-04-21T00:33:08.628Z,57.78
2023-04-21T00:35:35.630Z,54.72
2023-04-21T00:38:02.040Z,56.90
2023-04-21T00:40:29.026Z,57.72
2023-04-21T00:42:55.617Z,55.83
2023-04-21T00:45:22.642Z,57.13
2023-04-21T00:47:49.999Z,56.53
2023-04-21T00:50:17.412Z,56.40
2023-04-21T00:52:44.611Z,56.47
2023-04-21T00:55:11.351Z,60.10
2023-04-21T00:57:40.905Z,58.40
2023-04-21T01:00:09.102Z,60.67
2023-04-21T01:02:37.840Z,58.35
2023-04-21T01:05:07.091Z,59.17
2023-04-21T01:07:34.059Z,61.58
2023-04-21T01:10:01.110Z,56.42
2023-04-21T01:12:27.528Z,56.35
2023-04-21T01:14:54.259Z,60.15
2023-04-21T01:17:20.819Z,58.65
2023-04-21T01:19:47.706Z,60.85
2023-04-21T01:22:15.444Z,60.90
2023-04-21T01:24:43.321Z,60.42
2023-04-21T01:27:12.083Z,59.55
2023-04-21T01:29:39.484Z,59.30
2023-04-21T01:32:09.305Z,58.45
2023-04-21T01:34:35.867Z,57.58
2023-04-21T01:37:07.063Z,59.65
2023-04-21T01:39:33.475Z,60.50
2023-04-21T01:42:00.826Z,57.10
2023-04-21T01:44:27.502Z,59.30
2023-04-21T01:46:54.200Z,56.55
2023-04-21T01:49:20.845Z,60.75
2023-04-21T01:51:48.508Z,58.55
2023-04-21T01:54:15.207Z,60.08
2023-04-21T01:56:41.857Z,56.38
2023-04-21T01:59:08.649Z,56.08
2023-04-21T02:01:36.259Z,54.95
2023-04-21T02:04:05.679Z,51.35
2023-04-21T02:06:32.661Z,55.65
2023-04-21T02:08:59.372Z,55.15
2023-04-21T02:11:27.964Z,54.17
2023-04-21T02:13:54.992Z,54.13
2023-04-21T02:16:26.028Z,54.33
2023-04-21T02:18:53.938Z,50.25
2023-04-21T02:21:24.104Z,49.45
2023-04-21T02:23:51.517Z,50.95
2023-04-21T02:26:18.444Z,50.13
2023-04-21T02:28:45.316Z,52.70
2023-04-21T02:31:12.790Z,50.60
2023-04-21T02:33:39.374Z,51.97
2023-04-21T02:36:06.198Z,52.90
2023-04-21T02:38:32.648Z,57.40
2023-04-21T02:40:59.131Z,56.80
2023-04-21T02:43:25.856Z,56.95
2023-04-21T02:45:53.180Z,56.53
2023-04-21T02:48:27.051Z,58.80
2023-04-21T02:53:20.549Z,55.42
2023-04-21T02:55:47.181Z,65.30
2023-04-21T02:58:14.132Z,62.15
2023-04-21T03:00:41.770Z,59.97
2023-04-21T03:03:08.605Z,61.58
2023-04-21T03:05:35.532Z,64.88
2023-04-21T03:08:02.085Z,63.53
2023-04-21T03:10:28.997Z,66.05
2023-04-21T03:12:56.303Z,67.40
2023-04-21T03:15:23.879Z,60.38
2023-04-21T03:17:50.922Z,62.92
2023-04-21T03:20:18.745Z,60.47
2023-04-21T03:22:47.072Z,60.60
2023-04-21T03:25:13.748Z,57.72
2023-04-21T03:27:40.502Z,57.20
2023-04-21T03:30:07.685Z,60.03
2023-04-21T03:32:34.337Z,53.63
2023-04-21T03:35:00.908Z,59.22
2023-04-21T03:37:27.633Z,56.72
2023-04-21T03:39:54.197Z,55.20
2023-04-21T03:42:20.876Z,60.38
2023-04-21T03:44:48.749Z,63.13
2023-04-21T03:47:16.695Z,68.32
2023-04-21T03:49:43.530Z,60.33
2023-04-21T03:52:10.299Z,58.13
2023-04-21T03:54:36.829Z,57.97
2023-04-21T03:57:03.719Z,61.22
2023-04-21T03:59:30.326Z,54.92
2023-04-21T04:01:57.090Z,59.53
2023-04-21T04:04:23.603Z,58.03
2023-04-21T04:06:51.743Z,74.07
2023-04-21T04:09:18.405Z,65.75
2023-04-21T04:11:44.962Z,62.53
2023-04-21T04:14:11.627Z,59.97
2023-04-21T04:16:38.438Z,59.13
2023-04-21T04:19:05.017Z,55.95
2023-04-21T04:21:32.473Z,63.08
2023-04-21T04:23:59.300Z,56.95
2023-04-21T04:26:27.165Z,56.95
2023-04-21T04:28:56.170Z,60.10
2023-04-21T04:31:25.529Z,62.00
2023-04-21T04:33:54.688Z,55.08
2023-04-21T04:36:22.700Z,59.38
2023-04-21T04:38:49.365Z,52.45
2023-04-21T04:41:16.880Z,54.95
2023-04-21T04:43:44.090Z,57.08
2023-04-21T04:46:12.905Z,58.08
2023-04-21T04:48:39.672Z,53.08
2023-04-21T04:51:06.915Z,53.78
2023-04-21T04:53:33.564Z,54.20
2023-04-21T04:56:00.380Z,60.15
2023-04-21T04:58:26.891Z,54.13
2023-04-21T05:00:53.488Z,57.00
2023-04-21T05:03:20.421Z,57.53
2023-04-21T05:05:47.037Z,59.13
2023-04-21T05:08:15.697Z,59.53
2023-04-21T05:10:43.587Z,59.33
2023-04-21T05:13:10.275Z,59.22
2023-04-21T05:15:36.618Z,58.30
2023-04-21T05:18:03.312Z,62.75
2023-04-21T05:20:29.952Z,65.63
2023-04-21T05:22:56.647Z,61.28
2023-04-21T05:25:24.574Z,54.55
2023-04-21T05:27:51.031Z,48.05
2023-04-21T05:30:17.626Z,49.50
2023-04-21T05:32:44.998Z,46.97
2023-04-21T05:35:11.855Z,48.28
2023-04-21T05:37:38.438Z,44.80
2023-04-21T05:40:05.254Z,48.38
2023-04-21T05:42:31.806Z,44.72
2023-04-21T05:44:58.510Z,46.40
2023-04-21T05:47:25.104Z,42.97
2023-04-21T05:49:53.848Z,44.10
2023-04-21T05:52:23.508Z,43.22
2023-04-21T05:54:50.202Z,40.45
2023-04-21T05:57:17.900Z,41.45
2023-04-21T05:59:44.437Z,39.67
2023-04-21T06:02:12.694Z,35.38
2023-04-21T06:04:39.613Z,38.55
2023-04-21T06:07:07.363Z,37.35
2023-04-21T06:09:34.328Z,35.97
2023-04-21T06:12:01.832Z,32.72
2023-04-21T06:14:28.459Z,34.20
2023-04-21T06:16:55.142Z,32.53
2023-04-21T06:19:21.811Z,32.88
2023-04-21T06:21:48.354Z,28.70
2023-04-21T06:24:14.786Z,29.23
2023-04-21T06:26:41.417Z,31.35
2023-04-21T06:29:09.276Z,32.40
2023-04-21T06:31:35.846Z,38.17
2023-04-21T06:34:02.286Z,41.55
2023-04-21T06:36:28.731Z,35.60
2023-04-21T06:38:55.191Z,37.92
2023-04-21T06:41:24.266Z,40.30
2023-04-21T06:43:51.194Z,35.22
2023-04-21T06:46:18.748Z,35.20
2023-04-21T06:48:46.895Z,34.38
2023-04-21T06:51:13.544Z,33.75
2023-04-21T06:53:39.830Z,30.90
2023-04-21T06:56:06.959Z,35.60
2023-04-21T06:58:33.812Z,32.40
2023-04-21T07:01:00.281Z,29.80
2023-04-21T07:03:26.848Z,29.25
2023-04-21T07:05:53.278Z,28.42
2023-04-21T07:08:19.863Z,33.33
2023-04-21T07:10:46.764Z,30.38
2023-04-21T07:13:13.452Z,30.80
2023-04-21T07:15:39.882Z,31.77
2023-04-21T07:18:06.493Z,37.08
2023-04-21T07:20:33.117Z,37.88
2023-04-21T07:23:00.128Z,34.45
2023-04-21T07:25:26.767Z,35.00
2023-04-21T07:27:53.456Z,37.17
2023-04-21T07:30:20.193Z,35.20
2023-04-21T07:32:47.554Z,37.03
2023-04-21T07:35:14.569Z,35.65
2023-04-21T07:37:41.100Z,32.72
2023-04-21T07:40:08.555Z,32.78
2023-04-21T07:42:35.067Z,32.95
2023-04-21T07:45:02.847Z,32.55
2023-04-21T07:47:29.717Z,32.55
2023-04-21T07:49:57.479Z,30.75
2023-04-21T07:52:23.929Z,32.25
2023-04-21T07:54:50.712Z,34.42
2023-04-21T07:57:17.166Z,33.25
2023-04-21T07:59:43.730Z,37.17
2023-04-21T08:02:10.330Z,36.00
2023-04-21T08:04:37.173Z,35.55
2023-04-21T08:07:04.112Z,38.90
2023-04-21T08:09:30.838Z,39.28
2023-04-21T08:11:58.133Z,36.83
2023-04-21T08:14:26.817Z,40.35
2023-04-21T08:16:56.029Z,39.28
2023-04-21T08:19:23.408Z,41.33
2023-04-21T08:21:49.934Z,36.17
2023-04-21T08:24:16.558Z,37.30
2023-04-21T08:26:43.309Z,33.90
2023-04-21T08:29:10.917Z,35.90
2023-04-21T08:31:37.335Z,31.23
2023-04-21T08:34:03.999Z,31.88
2023-04-21T08:36:31.671Z,34.58
2023-04-21T08:38:58.761Z,30.90
2023-04-21T08:41:26.173Z,28.35
2023-04-21T08:43:52.884Z,27.45
2023-04-21T08:46:19.742Z,26.42
2023-04-21T08:48:47.879Z,29.95
2023-04-21T08:51:17.976Z,28.15
2023-04-21T08:53:46.259Z,28.83
2023-04-21T08:56:12.995Z,29.00
2023-04-21T08:58:39.698Z,28.52
2023-04-21T09:01:06.426Z,31.13
2023-04-21T09:03:33.247Z,29.48
2023-04-21T09:06:03.718Z,26.95
2023-04-21T09:08:31.369Z,28.38
2023-04-21T09:10:58.365Z,27.70
2023-04-21T09:13:32.272Z,30.92
2023-04-21T09:15:59.251Z,28.75
2023-04-21T09:18:27.019Z,29.70
2023-04-21T09:21:10.825Z,30.67
2023-04-21T09:23:51.323Z,25.05
2023-04-21T09:26:19.372Z,26.17
2023-04-21T09:28:46.910Z,27.08
2023-04-21T09:31:17.768Z,23.13
2023-04-21T09:33:57.752Z,23.40
2023-04-21T09:36:31.146Z,22.55
2023-04-21T09:41:28.504Z,25.42
2023-04-21T09:43:55.288Z,25.40
2023-04-21T09:46:22.534Z,27.80
2023-04-21T09:48:49.262Z,27.67
2023-04-21T09:53:48.985Z,28.67
2023-04-21T09:56:16.684Z,27.05
2023-04-21T09:58:57.724Z,27.23
2023-04-21T10:01:28.314Z,28.95
2023-04-21T10:03:55.406Z,28.75
2023-04-21T10:06:22.183Z,35.67
2023-04-21T10:08:49.657Z,35.55
2023-04-21T10:11:16.748Z,32.30
2023-04-21T10:13:43.788Z,30.55
2023-04-21T10:16:10.529Z,31.30
2023-04-21T10:18:38.667Z,31.65
2023-04-21T10:21:07.720Z,34.67
2023-04-21T10:23:48.846Z,31.63
2023-04-21T10:26:23.012Z,32.78
2023-04-21T10:28:52.616Z,34.55
2023-04-21T10:31:20.648Z,33.22
2023-04-21T10:34:06.185Z,32.03
2023-04-21T10:36:35.024Z,31.25
2023-04-21T10:39:04.827Z,34.22
2023-04-21T10:41:32.222Z,30.10
2023-04-21T10:43:59.537Z,34.40
2023-04-21T10:46:32.136Z,30.38
2023-04-21T10:49:08.902Z,32.97
2023-04-21T10:51:54.146Z,31.33
2023-04-21T10:54:26.056Z,31.52
2023-04-21T10:56:53.801Z,29.98
2023-04-21T10:59:20.637Z,27.33
2023-04-21T11:01:47.320Z,30.80
2023-04-21T11:04:14.560Z,29.60
2023-04-21T11:06:41.539Z,27.38
2023-04-21T11:09:09.291Z,29.08
2023-04-21T11:11:36.631Z,31.65
2023-04-21T11:14:03.678Z,30.63
2023-04-21T11:16:30.993Z,29.30
2023-04-21T11:18:57.540Z,27.35
2023-04-21T11:21:25.257Z,28.33
2023-04-21T11:23:53.821Z,29.77
2023-04-21T11:26:31.545Z,26.05
2023-04-21T11:29:00.349Z,27.55
2023-04-21T11:31:31.439Z,26.88
2023-04-21T11:33:59.029Z,26.85
2023-04-21T11:36:25.635Z,26.05
2023-04-21T11:38:52.335Z,23.42
2023-04-21T11:41:20.761Z,21.63
2023-04-21T11:43:47.984Z,22.90
2023-04-21T11:46:22.686Z,21.75
2023-04-21T11:48:58.374Z,23.98
2023-04-21T11:51:25.046Z,26.15
2023-04-21T11:53:51.504Z,25.10
2023-04-21T11:56:19.838Z,26.33
2023-04-21T11:58:46.639Z,20.17
2023-04-21T12:01:15.310Z,21.02
2023-04-21T12:03:42.006Z,22.45
2023-04-21T12:06:09.913Z,22.45
2023-04-21T12:08:36.699Z,23.98
2023-04-21T12:11:03.351Z,26.67
2023-04-21T12:13:31.185Z,23.95
2023-04-21T12:15:57.688Z,24.73
2023-04-21T12:18:27.374Z,22.35
2023-04-21T12:20:55.008Z,23.25
2023-04-21T12:23:21.348Z,25.55
2023-04-21T12:25:47.887Z,22.50
2023-04-21T12:28:16.161Z,21.70
2023-04-21T12:30:44.140Z,21.08
2023-04-21T12:33:11.345Z,22.55
2023-04-21T12:35:37.732Z,22.85
2023-04-21T12:38:04.275Z,20.58
2023-04-21T12:40:30.849Z,24.23
2023-04-21T12:42:57.169Z,23.10
2023-04-21T12:45:23.737Z,22.63
2023-04-21T12:47:50.267Z,22.20
2023-04-21T12:50:16.838Z,21.25
2023-04-21T12:52:43.380Z,20.83
2023-04-21T12:55:11.157Z,19.95
2023-04-21T12:57:38.132Z,24.05
2023-04-21T13:00:06.085Z,22.05
2023-04-21T13:02:37.420Z,22.25
2023-04-21T13:05:08.669Z,21.92
2023-04-21T13:07:35.355Z,20.98
2023-04-21T13:10:02.880Z,19.58
2023-04-21T13:12:29.571Z,23.00
2023-04-21T13:14:56.443Z,21.95
2023-04-21T13:17:24.343Z,20.13
2023-04-21T13:19:51.227Z,20.00
2023-04-21T13:22:17.676Z,20.80
2023-04-21T13:24:44.227Z,18.27
2023-04-21T13:27:11.147Z,21.25
2023-04-21T13:29:37.884Z,19.90
2023-04-21T13:32:06.278Z,17.75
2023-04-21T13:34:33.879Z,17.40
2023-04-21T13:37:01.311Z,18.77
2023-04-21T13:39:27.960Z,18.15
2023-04-21T13:41:54.697Z,16.38
2023-04-21T13:44:24.120Z,17.85
2023-04-21T13:46:52.994Z,17.45
2023-04-21T13:49:19.984Z,16.98
2023-04-21T13:51:46.663Z,17.60
2023-04-21T13:54:13.484Z,20.33
2023-04-21T13:56:40.263Z,16.30
2023-04-21T13:59:07.184Z,14.98
2023-04-21T14:01:33.748Z,15.90
2023-04-21T14:04:00.601Z,15.98
2023-04-21T14:06:28.112Z,18.42
2023-04-21T14:08:56.146Z,16.30
2023-04-21T14:11:22.683Z,15.15
2023-04-21T14:14:07.600Z,15.35
2023-04-21T14:16:35.624Z,16.58
2023-04-21T14:19:02.620Z,13.77
2023-04-21T14:21:29.316Z,18.17
2023-04-21T14:23:55.983Z,15.20
2023-04-21T14:26:22.605Z,15.32
2023-04-21T14:28:49.926Z,16.65
2023-04-21T14:31:16.630Z,17.33
2023-04-21T14:33:43.256Z,13.65
2023-04-21T14:36:11.145Z,13.85
2023-04-21T14:38:37.953Z,18.15
2023-04-21T14:41:05.035Z,12.95
2023-04-21T14:43:32.515Z,13.60
2023-04-21T14:45:59.102Z,13.43
2023-04-21T14:48:26.052Z,14.80
2023-04-21T14:50:52.809Z,12.35
2023-04-21T14:53:19.335Z,12.95
2023-04-21T14:55:45.920Z,14.25
2023-04-21T14:58:14.049Z,12.95
2023-04-21T15:00:40.687Z,13.13
2023-04-21T15:03:07.892Z,12.48
2023-04-21T15:05:35.049Z,12.35
2023-04-21T15:08:01.883Z,16.33
2023-04-21T15:10:29.910Z,10.65
2023-04-21T15:12:57.198Z,10.15
2023-04-21T15:15:24.154Z,12.07
2023-04-21T15:17:50.754Z,11.63
2023-04-21T15:20:17.185Z,9.75
2023-04-21T15:22:43.714Z,8.93
2023-04-21T15:25:10.642Z,9.95
2023-04-21T15:27:37.168Z,10.20
2023-04-21T15:30:04.504Z,10.13
2023-04-21T15:32:30.956Z,11.43
2023-04-21T15:34:57.508Z,9.88
2023-04-21T15:37:25.817Z,11.63
2023-04-21T15:39:52.697Z,13.57
2023-04-21T15:42:19.364Z,11.20
2023-04-21T15:44:47.148Z,10.27
2023-04-21T15:47:15.281Z,11.80
2023-04-21T15:49:41.919Z,9.18
2023-04-21T15:52:09.005Z,9.75
2023-04-21T15:54:35.871Z,10.93
2023-04-21T15:57:03.029Z,11.55
2023-04-21T15:59:30.915Z,10.73
2023-04-21T16:01:57.829Z,11.40
2023-04-21T16:04:24.893Z,13.52
2023-04-21T16:06:52.131Z,15.82
2023-04-21T16:09:21.095Z,11.75
2023-04-21T16:11:49.983Z,11.10
2023-04-21T16:14:17.517Z,14.68
2023-04-21T16:16:44.545Z,11.98
2023-04-21T16:19:11.128Z,10.23
2023-04-21T16:21:37.615Z,9.45
2023-04-21T16:24:06.882Z,10.73
2023-04-21T16:26:35.127Z,12.70
2023-04-21T16:29:01.612Z,9.57
2023-04-21T16:31:28.221Z,10.80
2023-04-21T16:33:59.568Z,12.02
2023-04-21T16:36:31.147Z,8.90
2023-04-21T16:38:57.906Z,9.68
2023-04-21T16:41:24.691Z,10.10
2023-04-21T16:43:51.783Z,9.45
2023-04-21T16:46:18.578Z,9.88
2023-04-21T16:48:45.501Z,8.77
2023-04-21T16:51:12.830Z,9.90
2023-04-21T16:53:40.388Z,9.23
2023-04-21T16:56:08.705Z,10.88
2023-04-21T16:58:35.152Z,11.82
2023-04-21T17:01:01.528Z,8.73
2023-04-21T17:03:29.272Z,9.82
2023-04-21T17:05:56.009Z,8.80
2023-04-21T17:08:23.695Z,8.55
2023-04-21T17:10:50.056Z,10.13
2023-04-21T17:13:16.680Z,8.52
2023-04-21T17:15:43.105Z,8.05
2023-04-21T17:18:10.176Z,8.70
2023-04-21T17:20:38.212Z,9.55
2023-04-21T17:23:04.771Z,8.70
2023-04-21T17:25:31.517Z,7.40
2023-04-21T17:27:58.127Z,14.00
2023-04-21T17:30:24.766Z,8.50
2023-04-21T17:33:00.508Z,8.18
2023-04-21T17:35:35.696Z,7.53
2023-04-21T17:38:02.505Z,8.75
2023-04-21T17:40:28.888Z,7.75
2023-04-21T17:42:57.023Z,7.88
2023-04-21T17:45:23.452Z,9.05
2023-04-21T17:47:49.930Z,10.23
2023-04-21T17:50:16.751Z,8.55
2023-04-21T17:52:43.302Z,9.77
2023-04-21T17:55:09.769Z,8.80
2023-04-21T17:57:36.470Z,9.00
2023-04-21T18:00:07.143Z,7.93
2023-04-21T18:02:33.949Z,7.75
2023-04-21T18:05:01.408Z,7.13
2023-04-21T18:07:27.880Z,9.63
2023-04-21T18:09:54.482Z,16.17
2023-04-21T18:12:21.255Z,13.10
2023-04-21T18:14:49.662Z,11.57
2023-04-21T18:17:19.184Z,9.00
2023-04-21T18:19:45.780Z,8.65
2023-04-21T18:22:12.334Z,12.73
2023-04-21T18:24:39.261Z,8.98
2023-04-21T18:27:05.998Z,9.98
2023-04-21T18:29:32.579Z,8.07
2023-04-21T18:31:58.935Z,9.88
2023-04-21T18:34:25.651Z,8.65
2023-04-21T18:36:52.093Z,9.00
2023-04-21T18:39:18.508Z,9.27
2023-04-21T18:41:48.203Z,7.35
2023-04-21T18:44:16.409Z,10.13
2023-04-21T18:46:42.863Z,9.90
2023-04-21T18:49:09.579Z,10.70
2023-04-21T18:51:36.165Z,7.82
2023-04-21T18:54:04.488Z,7.32
2023-04-21T18:56:32.672Z,9.57
2023-04-21T18:58:59.668Z,9.27
2023-04-21T19:01:26.606Z,11.18
2023-04-21T19:03:53.216Z,8.32
2023-04-21T19:06:19.920Z,11.77
2023-04-21T19:08:46.713Z,14.65
2023-04-21T19:11:15.501Z,13.27
2023-04-21T19:13:42.169Z,13.90
2023-04-21T19:16:10.260Z,13.52
2023-04-21T19:18:36.762Z,14.00
2023-04-21T19:21:04.519Z,9.95
2023-04-21T19:23:31.118Z,11.07
2023-04-21T19:25:57.592Z,9.00
2023-04-21T19:28:24.021Z,11.82
2023-04-21T19:30:50.890Z,10.00
2023-04-21T19:33:17.437Z,10.48
2023-04-21T19:35:43.934Z,11.95
2023-04-21T19:38:10.885Z,10.15
2023-04-21T19:40:38.569Z,13.23
2023-04-21T19:43:05.614Z,10.52
2023-04-21T19:45:32.287Z,10.68
2023-04-21T19:48:00.824Z,13.00
2023-04-21T19:50:27.450Z,10.52
2023-04-21T19:52:53.997Z,11.98
2023-04-21T19:55:20.750Z,14.05
2023-04-21T19:57:47.456Z,15.68
2023-04-21T20:00:14.455Z,15.90
2023-04-21T20:02:41.278Z,14.35
2023-04-21T20:05:09.638Z,16.10
2023-04-21T20:07:36.698Z,14.63
2023-04-21T20:10:04.249Z,11.30
2023-04-21T20:12:30.772Z,10.73
2023-04-21T20:14:57.456Z,12.98
2023-04-21T20:17:23.990Z,10.00
2023-04-21T20:19:50.374Z,11.02
2023-04-21T20:22:17.026Z,9.38
2023-04-21T20:24:43.804Z,10.93
2023-04-21T20:27:10.343Z,8.88
2023-04-21T20:29:36.927Z,12.00
2023-04-21T20:32:04.132Z,10.20
2023-04-21T20:34:30.868Z,11.93
2023-04-21T20:36:59.379Z,15.85
2023-04-21T20:39:26.163Z,14.07
2023-04-21T20:42:04.688Z,17.20
2023-04-21T20:44:37.145Z,12.90
2023-04-21T20:47:04.610Z,9.93
2023-04-21T20:49:31.693Z,8.70
2023-04-21T20:51:58.993Z,8.50
2023-04-21T20:54:25.748Z,10.38
2023-04-21T20:56:54.605Z,7.72
2023-04-21T20:59:21.649Z,10.18
2023-04-21T21:01:48.614Z,13.30
2023-04-21T21:04:15.489Z,12.95
2023-04-21T21:06:42.879Z,12.32
2023-04-21T21:09:10.260Z,13.75
2023-04-21T21:11:37.887Z,13.55
2023-04-21T21:14:04.246Z,12.07
2023-04-21T21:16:30.783Z,15.57
2023-04-21T21:18:57.596Z,10.75
2023-04-21T21:21:24.873Z,13.45
2023-04-21T21:23:53.858Z,13.35
2023-04-21T21:26:20.786Z,13.50
2023-04-21T21:28:47.577Z,9.43
2023-04-21T21:31:13.968Z,9.40
2023-04-21T21:33:40.631Z,10.48
2023-04-21T21:36:07.856Z,8.68
2023-04-21T21:38:34.242Z,9.98
2023-04-21T21:41:02.869Z,8.43
2023-04-21T21:43:29.313Z,7.78
2023-04-21T21:45:55.872Z,7.72
2023-04-21T21:48:22.740Z,7.88
2023-04-21T21:50:49.378Z,10.63
2023-04-21T21:53:15.953Z,9.13
2023-04-21T21:55:42.680Z,8.25
2023-04-21T21:58:09.674Z,9.98
2023-04-21T22:00:39.109Z,7.45
2023-04-21T22:03:06.225Z,7.97
2023-04-21T22:05:33.081Z,7.93
2023-04-21T22:07:59.639Z,11.90
2023-04-21T22:10:26.389Z,8.80
2023-04-21T22:12:53.065Z,7.00
2023-04-21T22:15:19.869Z,7.00
2023-04-21T22:17:47.490Z,8.77
2023-04-21T22:20:15.721Z,7.95
2023-04-21T22:22:42.362Z,9.68
2023-04-21T22:25:10.980Z,6.80
2023-04-21T22:27:37.553Z,8.10
2023-04-21T22:30:04.843Z,6.88
2023-04-21T22:32:32.476Z,8.38
2023-04-21T22:34:59.710Z,11.35
2023-04-21T22:37:26.084Z,7.40
2023-04-21T22:39:52.691Z,8.65
2023-04-21T22:42:19.444Z,9.38
2023-04-21T22:44:46.164Z,10.43
2023-04-21T22:47:12.801Z,7.68
2023-04-21T22:49:39.421Z,7.43
2023-04-21T22:52:05.989Z,8.52
2023-04-21T22:54:34.659Z,7.68
2023-04-21T22:57:02.501Z,9.23
2023-04-21T22:59:29.042Z,6.00
2023-04-21T23:01:55.818Z,6.28
2023-04-21T23:04:22.324Z,6.65
2023-04-21T23:06:48.891Z,6.10
2023-04-21T23:09:15.446Z,6.93
2023-04-21T23:11:42.002Z,6.60
2023-04-21T23:14:08.406Z,5.53
2023-04-21T23:16:35.011Z,6.97
2023-04-21T23:19:02.473Z,5.25
2023-04-21T23:21:31.535Z,5.85
2023-04-21T23:23:57.973Z,5.38
2023-04-21T23:26:24.972Z,6.65
2023-04-21T23:28:51.690Z,5.53
2023-04-21T23:31:18.629Z,5.22
2023-04-21T23:33:45.194Z,4.65
2023-04-21T23:36:11.908Z,5.07
2023-04-21T23:38:38.273Z,7.28
2023-04-21T23:41:04.768Z,5.30
2023-04-21T23:43:31.447Z,4.72
2023-04-21T23:45:58.048Z,10.20
2023-04-21T23:48:24.411Z,4.30
2023-04-21T23:50:50.935Z,5.65
2023-04-21T23:53:17.564Z,7.03
2023-04-21T23:55:44.288Z,6.97
2023-04-21T23:58:10.965Z,5.53
